Time;durP1;ratioP1;P1;durP2;ratioP2;P2;SDS_P1;SDS_P2;PMS_P1;PMS_P2;Temp;Humidity;BMP_temperature;BMP_pressure;BME280_temperature;BME280_humidity;BME280_pressure;Samples;Min_cycle;Max_cycle;Signal;HPM_P1;HPM_P2
2021/01/25 00:00:55;;;;;;;8.97;6.60;;;1.20;99.90;;;;;;4925873;29;20231;-77
2021/01/25 00:03:21;;;;;;;8.32;7.13;;;1.10;99.90;;;;;;4927105;29;20437;-77
2021/01/25 00:05:46;;;;;;;10.30;7.17;;;1.10;99.90;;;;;;4927583;29;20200;-77
2021/01/25 00:08:12;;;;;;;8.17;7.03;;;1.10;99.90;;;;;;4926418;29;20223;-78
2021/01/25 00:10:38;;;;;;;11.17;7.00;;;1.10;99.90;;;;;;4924465;29;20243;-77
2021/01/25 00:13:04;;;;;;;9.83;7.20;;;1.10;99.90;;;;;;4927085;29;20213;-77
2021/01/25 00:15:29;;;;;;;12.77;7.17;;;1.00;99.90;;;;;;4925723;29;20584;-77
2021/01/25 00:17:55;;;;;;;10.00;7.33;;;1.00;99.90;;;;;;4925827;29;20217;-77
2021/01/25 00:20:21;;;;;;;10.50;7.37;;;1.00;99.90;;;;;;4926279;29;20268;-77
2021/01/25 00:22:47;;;;;;;8.25;7.30;;;1.00;99.90;;;;;;4926378;29;20209;-77
2021/01/25 00:25:12;;;;;;;8.27;6.97;;;1.00;99.90;;;;;;4925258;29;20197;-78
2021/01/25 00:27:38;;;;;;;8.57;7.60;;;1.00;99.90;;;;;;4916257;29;20289;-79
2021/01/25 00:30:05;;;;;;;8.33;7.10;;;1.00;99.90;;;;;;4916290;29;20480;-79
2021/01/25 00:32:31;;;;;;;15.82;7.60;;;0.90;99.90;;;;;;4915990;29;20225;-77
2021/01/25 00:34:57;;;;;;;13.27;8.10;;;1.00;99.90;;;;;;4926011;29;20201;-77
2021/01/25 00:37:22;;;;;;;10.27;7.37;;;1.00;99.90;;;;;;4924293;29;20225;-77
2021/01/25 00:39:48;;;;;;;12.57;7.83;;;1.00;99.90;;;;;;4927790;29;20269;-77
2021/01/25 00:42:14;;;;;;;10.70;7.93;;;1.00;99.90;;;;;;4925234;29;20290;-77
2021/01/25 00:44:40;;;;;;;10.80;7.60;;;1.00;99.90;;;;;;4926163;29;20196;-77
2021/01/25 00:47:05;;;;;;;10.03;7.47;;;1.00;99.90;;;;;;4926053;29;20227;-77
2021/01/25 00:49:31;;;;;;;11.63;8.97;;;1.00;99.90;;;;;;4924574;29;20244;-77
2021/01/25 00:51:57;;;;;;;11.00;8.27;;;1.00;99.90;;;;;;4925696;29;20680;-78
2021/01/25 00:54:22;;;;;;;12.70;7.77;;;1.00;99.90;;;;;;4924346;29;20206;-77
2021/01/25 00:56:49;;;;;;;11.83;8.60;;;0.90;99.90;;;;;;4924371;29;20205;-77
2021/01/25 00:59:15;;;;;;;11.35;9.45;;;0.90;99.90;;;;;;4926481;29;20208;-77
2021/01/25 01:01:41;;;;;;;14.30;8.38;;;0.90;99.90;;;;;;4927095;29;20193;-77
2021/01/25 01:04:07;;;;;;;11.63;7.68;;;0.90;99.90;;;;;;4925012;29;20292;-77
2021/01/25 01:06:33;;;;;;;9.63;7.90;;;1.00;99.90;;;;;;4925863;29;20664;-77
2021/01/25 01:08:58;;;;;;;10.80;8.63;;;1.00;99.90;;;;;;4926700;29;20257;-77
2021/01/25 01:11:24;;;;;;;10.30;7.43;;;1.00;99.90;;;;;;4925596;29;20282;-77
2021/01/25 01:13:50;;;;;;;12.17;8.00;;;0.90;99.90;;;;;;4925853;29;20209;-77
2021/01/25 01:16:15;;;;;;;10.47;8.80;;;1.00;99.90;;;;;;4928269;29;20221;-77
2021/01/25 01:18:41;;;;;;;10.93;8.00;;;1.00;99.90;;;;;;4924564;29;20212;-77
2021/01/25 01:21:07;;;;;;;21.50;9.70;;;1.00;99.90;;;;;;4926970;29;20198;-77
2021/01/25 01:23:32;;;;;;;18.17;9.73;;;1.00;99.90;;;;;;4927949;29;20268;-77
2021/01/25 01:25:58;;;;;;;11.23;8.77;;;1.00;99.90;;;;;;4927423;29;20212;-77
2021/01/25 01:28:23;;;;;;;10.73;8.30;;;1.00;99.90;;;;;;4927994;29;20220;-77
2021/01/25 01:30:49;;;;;;;9.50;8.60;;;1.00;99.90;;;;;;4928248;29;20182;-77
2021/01/25 01:33:15;;;;;;;13.77;8.20;;;1.00;99.90;;;;;;4926477;29;20213;-77
2021/01/25 01:35:40;;;;;;;10.77;8.60;;;1.00;99.90;;;;;;4928906;29;20197;-77
2021/01/25 01:38:06;;;;;;;10.00;8.00;;;1.00;99.90;;;;;;4931443;29;20220;-77
2021/01/25 01:40:32;;;;;;;10.60;8.40;;;1.00;99.90;;;;;;4931899;29;20193;-77
2021/01/25 01:42:58;;;;;;;10.80;8.90;;;1.00;99.90;;;;;;4929397;29;20213;-77
2021/01/25 01:45:23;;;;;;;12.50;8.90;;;0.90;99.90;;;;;;4932728;29;20421;-77
2021/01/25 01:47:49;;;;;;;10.70;8.10;;;1.00;99.90;;;;;;4930276;29;20276;-77
2021/01/25 01:50:15;;;;;;;10.30;8.17;;;1.00;99.90;;;;;;4930313;29;20417;-77
2021/01/25 01:52:41;;;;;;;11.35;8.35;;;1.00;99.90;;;;;;4929236;29;20454;-77
2021/01/25 01:55:08;;;;;;;11.30;8.90;;;1.00;99.90;;;;;;4931691;29;20189;-77
2021/01/25 01:57:35;;;;;;;10.27;8.07;;;1.00;99.90;;;;;;4929917;29;20491;-77
2021/01/25 02:00:05;;;;;;;14.40;9.63;;;1.00;99.90;;;;;;4932621;29;20216;-77
2021/01/25 02:02:30;;;;;;;10.18;8.52;;;1.00;99.90;;;;;;4930654;29;20213;-77
2021/01/25 02:04:57;;;;;;;11.10;9.13;;;1.00;99.90;;;;;;4930870;29;20188;-78
2021/01/25 02:07:24;;;;;;;10.95;8.48;;;1.00;99.90;;;;;;4929881;29;20449;-77
2021/01/25 02:09:50;;;;;;;8.80;7.90;;;1.00;99.90;;;;;;4933026;29;20162;-77
2021/01/25 02:12:19;;;;;;;12.25;9.30;;;1.00;99.90;;;;;;4928719;29;20237;-78
2021/01/25 02:14:46;;;;;;;8.98;7.72;;;1.00;99.90;;;;;;4918521;29;20252;-79
2021/01/25 02:17:16;;;;;;;9.68;8.23;;;1.00;99.90;;;;;;4917679;29;20228;-79
2021/01/25 02:20:18;;;;;;;11.30;8.60;;;1.00;99.90;;;;;;4918358;29;20209;-79
2021/01/25 02:22:47;;;;;;;9.73;7.32;;;1.00;99.90;;;;;;4916381;29;20240;-79
2021/01/25 02:25:50;;;;;;;10.00;7.80;;;1.00;99.90;;;;;;4924886;29;20725;-79
2021/01/25 02:28:16;;;;;;;8.35;6.95;;;1.00;99.90;;;;;;4951294;29;20240;-79
2021/01/25 02:30:42;;;;;;;12.60;8.20;;;1.00;99.90;;;;;;4937579;29;20412;-78
2021/01/25 02:33:08;;;;;;;9.13;8.23;;;1.00;99.90;;;;;;4925011;29;20284;-79
2021/01/25 02:35:36;;;;;;;10.20;7.40;;;1.00;99.90;;;;;;4918299;29;20193;-79
2021/01/25 02:38:03;;;;;;;10.27;8.32;;;1.00;99.90;;;;;;4917601;29;20213;-78
2021/01/25 02:40:30;;;;;;;9.93;8.93;;;1.00;99.90;;;;;;4918214;29;20225;-79
2021/01/25 02:42:57;;;;;;;10.30;8.75;;;1.00;99.90;;;;;;4917845;29;20233;-79
2021/01/25 02:45:23;;;;;;;10.13;7.85;;;1.00;99.90;;;;;;4918179;29;20189;-79
2021/01/25 02:47:50;;;;;;;10.82;8.35;;;1.00;99.90;;;;;;4917320;29;20684;-79
2021/01/25 02:50:16;;;;;;;9.30;7.75;;;1.00;99.90;;;;;;4916858;29;20178;-79
2021/01/25 02:52:41;;;;;;;10.33;7.50;;;1.10;99.90;;;;;;4917732;29;20213;-79
2021/01/25 02:55:08;;;;;;;10.27;7.93;;;1.10;99.90;;;;;;4918026;29;20185;-79
2021/01/25 02:57:36;;;;;;;9.50;7.68;;;1.10;99.90;;;;;;4917077;29;20779;-79
2021/01/25 03:00:04;;;;;;;8.80;7.35;;;1.10;99.90;;;;;;4917990;29;20216;-79
2021/01/25 03:02:30;;;;;;;9.60;8.50;;;1.10;99.90;;;;;;4916725;29;20568;-79
2021/01/25 03:05:02;;;;;;;9.60;8.30;;;1.10;99.90;;;;;;4916556;29;20406;-79
2021/01/25 03:07:27;;;;;;;10.25;8.20;;;1.10;99.90;;;;;;4916934;29;20536;-79
2021/01/25 03:09:53;;;;;;;11.77;8.23;;;1.10;99.90;;;;;;4917773;29;20261;-79
2021/01/25 03:12:19;;;;;;;11.63;8.38;;;1.10;99.90;;;;;;4916928;29;20319;-79
2021/01/25 03:14:45;;;;;;;9.70;8.00;;;1.10;99.90;;;;;;4917779;29;20268;-79
2021/01/25 03:17:11;;;;;;;7.95;7.22;;;1.10;99.90;;;;;;4916852;29;20221;-79
2021/01/25 03:19:37;;;;;;;10.48;8.35;;;1.00;99.90;;;;;;4921878;29;20220;-77
2021/01/25 03:22:03;;;;;;;9.47;8.50;;;1.00;99.90;;;;;;4930353;29;20173;-77
2021/01/25 03:24:29;;;;;;;9.15;8.23;;;1.10;99.90;;;;;;4930646;29;20804;-77
2021/01/25 03:26:55;;;;;;;9.60;8.27;;;1.10;99.90;;;;;;4930680;29;20247;-77
2021/01/25 03:29:21;;;;;;;10.33;8.30;;;1.10;99.90;;;;;;4929977;29;20193;-77
2021/01/25 03:31:46;;;;;;;10.40;8.30;;;1.10;99.90;;;;;;4931062;29;20184;-77
2021/01/25 03:34:12;;;;;;;13.07;8.90;;;1.10;99.90;;;;;;4930726;29;20209;-77
2021/01/25 03:36:38;;;;;;;11.57;7.70;;;1.10;99.90;;;;;;4930335;29;20186;-77
2021/01/25 03:39:06;;;;;;;9.35;8.40;;;1.10;99.90;;;;;;4928964;29;20219;-77
2021/01/25 03:41:31;;;;;;;8.98;8.07;;;1.10;99.90;;;;;;4930271;29;20173;-77
2021/01/25 03:43:58;;;;;;;9.60;8.17;;;1.20;99.90;;;;;;4930893;29;20217;-77
2021/01/25 03:46:24;;;;;;;11.68;8.10;;;1.10;99.90;;;;;;4930914;29;20174;-77
2021/01/25 03:48:50;;;;;;;11.80;7.90;;;1.10;99.90;;;;;;4930870;29;20221;-77
2021/01/25 03:51:18;;;;;;;10.85;8.40;;;1.10;99.90;;;;;;4930684;29;20436;-77
2021/01/25 03:53:48;;;;;;;13.18;9.40;;;1.10;99.90;;;;;;4930143;29;20217;-77
2021/01/25 03:56:14;;;;;;;8.63;7.40;;;1.10;99.90;;;;;;4930105;29;20237;-77
2021/01/25 03:58:41;;;;;;;9.00;7.55;;;1.10;99.90;;;;;;4930789;29;20225;-78
2021/01/25 04:01:07;;;;;;;9.45;8.55;;;1.00;99.90;;;;;;4933417;29;20197;-77
2021/01/25 04:03:33;;;;;;;8.70;7.50;;;1.10;99.90;;;;;;4937852;29;20636;-78
2021/01/25 04:05:59;;;;;;;10.57;7.70;;;1.10;99.90;;;;;;4936735;29;20177;-77
2021/01/25 04:08:24;;;;;;;11.27;7.93;;;1.10;99.90;;;;;;4932436;29;20237;-78
2021/01/25 04:10:50;;;;;;;9.97;7.57;;;1.00;99.90;;;;;;4933050;29;20185;-78
2021/01/25 04:13:16;;;;;;;10.30;8.80;;;1.10;99.90;;;;;;4933612;29;20227;-78
2021/01/25 04:15:41;;;;;;;10.67;7.47;;;1.10;99.90;;;;;;4928595;29;20284;-79
2021/01/25 04:18:07;;;;;;;9.40;7.90;;;1.10;99.90;;;;;;4916548;29;20688;-79
2021/01/25 04:20:33;;;;;;;9.17;7.27;;;1.10;99.90;;;;;;4917912;29;20221;-79
2021/01/25 04:22:59;;;;;;;10.80;8.03;;;1.20;99.90;;;;;;4915654;29;20217;-79
2021/01/25 04:25:24;;;;;;;9.60;8.60;;;1.20;99.90;;;;;;4917243;29;20193;-79
2021/01/25 04:27:50;;;;;;;10.30;8.03;;;1.20;99.90;;;;;;4916587;29;20213;-79
2021/01/25 04:30:16;;;;;;;10.03;7.73;;;1.20;99.90;;;;;;4917028;29;20428;-79
2021/01/25 04:32:42;;;;;;;9.05;7.90;;;1.20;99.90;;;;;;4930479;29;20209;-78
2021/01/25 04:35:10;;;;;;;9.40;7.60;;;1.20;99.90;;;;;;4919551;29;20224;-79
2021/01/25 04:37:38;;;;;;;12.13;9.05;;;1.20;99.90;;;;;;4916116;29;20457;-79
2021/01/25 04:40:06;;;;;;;9.40;6.97;;;1.20;99.90;;;;;;4916484;29;20209;-79
2021/01/25 04:42:32;;;;;;;11.25;8.52;;;1.20;99.90;;;;;;4916085;29;20205;-79
2021/01/25 04:44:58;;;;;;;9.63;8.40;;;1.20;99.90;;;;;;4916505;29;20221;-79
2021/01/25 04:47:25;;;;;;;9.32;8.05;;;1.20;99.90;;;;;;4916069;29;20229;-79
2021/01/25 04:49:51;;;;;;;13.20;8.75;;;1.20;99.90;;;;;;4916490;29;20667;-79
2021/01/25 04:52:18;;;;;;;12.40;9.02;;;1.20;99.90;;;;;;4915806;29;20209;-79
2021/01/25 04:54:46;;;;;;;13.70;8.32;;;1.20;99.90;;;;;;4916566;29;20220;-78
2021/01/25 04:57:15;;;;;;;9.55;8.48;;;1.20;99.90;;;;;;4915833;29;20288;-78
2021/01/25 04:59:44;;;;;;;11.57;8.00;;;1.20;99.90;;;;;;4915999;29;20231;-79
2021/01/25 05:02:10;;;;;;;12.38;8.50;;;1.20;99.90;;;;;;4914606;29;20205;-79
2021/01/25 05:04:36;;;;;;;9.00;8.10;;;1.20;99.90;;;;;;4915909;29;20262;-78
2021/01/25 05:07:03;;;;;;;9.53;8.43;;;1.20;99.90;;;;;;4914516;29;20177;-79
2021/01/25 05:09:29;;;;;;;10.13;8.70;;;1.10;99.90;;;;;;4915799;29;20511;-79
2021/01/25 05:12:02;;;;;;;9.67;7.77;;;1.20;99.90;;;;;;4915696;29;20264;-78
2021/01/25 05:14:41;;;;;;;12.77;9.32;;;1.20;99.90;;;;;;4915695;29;20441;-79
2021/01/25 05:17:08;;;;;;;9.80;8.80;;;1.20;99.90;;;;;;4915542;29;20691;-79
2021/01/25 05:19:35;;;;;;;10.60;8.13;;;1.20;99.90;;;;;;4915719;29;20688;-79
2021/01/25 05:22:01;;;;;;;9.90;8.70;;;1.30;99.90;;;;;;4915343;29;20252;-79
2021/01/25 05:24:27;;;;;;;12.20;8.97;;;1.20;99.90;;;;;;4915703;29;20221;-79
2021/01/25 05:27:01;;;;;;;10.67;8.27;;;1.20;99.90;;;;;;4915578;29;20641;-79
2021/01/25 05:29:28;;;;;;;9.27;7.78;;;1.30;99.90;;;;;;4915787;29;20189;-79
2021/01/25 05:31:55;;;;;;;10.25;8.88;;;1.20;99.90;;;;;;4915155;29;20181;-79
2021/01/25 05:34:21;;;;;;;10.50;8.40;;;1.30;99.90;;;;;;4915333;29;20209;-79
2021/01/25 05:36:48;;;;;;;10.38;8.05;;;1.20;99.90;;;;;;4914995;29;20218;-79
2021/01/25 05:39:18;;;;;;;16.67;9.70;;;1.20;99.90;;;;;;4915342;29;20240;-79
2021/01/25 05:41:58;;;;;;;11.38;10.20;;;1.20;99.90;;;;;;4915653;29;20182;-79
2021/01/25 05:44:24;;;;;;;11.80;9.70;;;1.20;99.90;;;;;;4899896;29;20548;-79
2021/01/25 05:46:50;;;;;;;9.43;8.50;;;1.20;99.90;;;;;;4915471;29;20518;-79
2021/01/25 05:49:25;;;;;;;9.60;8.60;;;1.30;99.90;;;;;;4915544;29;20229;-79
2021/01/25 05:51:54;;;;;;;10.82;9.43;;;1.20;99.90;;;;;;4915190;29;20184;-79
2021/01/25 05:54:24;;;;;;;10.98;8.18;;;1.30;99.90;;;;;;4915265;29;20201;-79
2021/01/25 05:56:50;;;;;;;9.73;7.95;;;1.30;99.90;;;;;;4915129;29;20188;-79
2021/01/25 05:59:16;;;;;;;10.57;9.05;;;1.30;99.90;;;;;;4915882;29;20708;-79
2021/01/25 06:01:42;;;;;;;10.00;8.53;;;1.30;99.90;;;;;;4921025;29;20173;-78
2021/01/25 06:04:13;;;;;;;11.63;9.18;;;1.30;99.90;;;;;;4918855;29;20221;-79
2021/01/25 06:06:39;;;;;;;9.65;8.27;;;1.30;99.90;;;;;;4915452;29;20656;-79
2021/01/25 06:09:13;;;;;;;12.20;8.70;;;1.40;99.90;;;;;;4915030;29;20220;-79
2021/01/25 06:11:44;;;;;;;11.60;9.40;;;1.40;99.90;;;;;;4915239;29;20722;-79
2021/01/25 06:14:24;;;;;;;9.23;7.90;;;1.40;99.90;;;;;;4915843;29;20217;-79
2021/01/25 06:16:51;;;;;;;10.05;8.40;;;1.40;99.90;;;;;;4925179;29;20173;-79
2021/01/25 06:19:29;;;;;;;9.95;7.63;;;1.40;99.90;;;;;;4915237;29;20576;-80
2021/01/25 06:21:56;;;;;;;9.68;8.68;;;1.40;99.90;;;;;;4927237;29;20188;-79
2021/01/25 06:24:24;;;;;;;10.32;9.20;;;1.40;99.90;;;;;;4937712;29;20187;-79
2021/01/25 06:26:53;;;;;;;12.07;8.63;;;1.40;99.90;;;;;;4935002;29;20168;-79
2021/01/25 06:29:20;;;;;;;14.52;9.10;;;1.50;99.90;;;;;;4937693;29;20185;-79
2021/01/25 06:31:54;;;;;;;16.52;10.73;;;1.50;99.90;;;;;;4929662;29;20201;-79
2021/01/25 06:34:21;;;;;;;13.80;9.95;;;1.70;99.90;;;;;;4931228;29;20207;-79
2021/01/25 06:36:50;;;;;;;12.73;10.20;;;1.60;99.90;;;;;;4936838;29;20209;-79
2021/01/25 06:39:27;;;;;;;13.15;10.40;;;1.70;99.90;;;;;;4926904;29;20209;-79
2021/01/25 06:42:06;;;;;;;14.10;11.10;;;1.70;99.90;;;;;;4917668;29;20287;-79
2021/01/25 06:44:34;;;;;;;15.10;11.15;;;1.80;99.90;;;;;;4913072;29;20185;-77
2021/01/25 06:47:04;;;;;;;15.52;11.35;;;1.80;99.90;;;;;;4935051;29;20201;-77
2021/01/25 06:49:30;;;;;;;17.20;11.88;;;1.80;99.90;;;;;;4918293;29;20715;-79
2021/01/25 06:51:57;;;;;;;18.73;12.02;;;1.80;99.90;;;;;;4917620;29;20245;-79
2021/01/25 06:54:25;;;;;;;18.88;14.30;;;1.80;99.90;;;;;;4921657;29;20224;-77
2021/01/25 06:56:59;;;;;;;22.05;13.75;;;1.80;99.90;;;;;;4937364;29;20261;-77
2021/01/25 06:59:27;;;;;;;16.17;11.85;;;1.90;99.90;;;;;;4936845;29;20224;-77
2021/01/25 07:01:55;;;;;;;23.08;14.95;;;1.80;99.90;;;;;;4935661;29;20208;-77
2021/01/25 07:04:23;;;;;;;19.70;13.00;;;1.80;99.90;;;;;;4924758;29;20312;-78
2021/01/25 07:06:51;;;;;;;16.92;12.98;;;1.80;99.90;;;;;;4922857;29;20664;-79
2021/01/25 07:09:27;;;;;;;17.92;13.75;;;1.80;99.90;;;;;;4926945;29;20244;-78
2021/01/25 07:11:58;;;;;;;18.30;14.35;;;1.80;99.90;;;;;;4935318;29;20229;-78
2021/01/25 07:14:27;;;;;;;20.48;13.70;;;1.80;99.90;;;;;;4926273;29;20205;-78
2021/01/25 07:16:54;;;;;;;20.10;13.07;;;1.70;99.90;;;;;;4934981;29;20208;-78
2021/01/25 07:19:21;;;;;;;25.77;14.40;;;1.70;99.90;;;;;;4921387;29;20205;-79
2021/01/25 07:21:48;;;;;;;20.42;13.90;;;1.70;99.90;;;;;;4965174;23;20231;-79
2021/01/25 07:24:36;;;;;;;23.58;14.63;;;1.70;99.90;;;;;;4950024;28;20188;-79
2021/01/25 07:27:02;;;;;;;23.50;15.85;;;1.70;99.90;;;;;;4937784;28;20188;-80
2021/01/25 07:29:28;;;;;;;19.15;13.82;;;1.80;99.90;;;;;;4937197;29;20241;-80
2021/01/25 07:31:54;;;;;;;22.70;14.90;;;1.70;99.90;;;;;;4935354;28;20228;-80
2021/01/25 07:34:21;;;;;;;19.00;14.15;;;1.80;99.90;;;;;;4922741;29;20464;-78
2021/01/25 07:36:47;;;;;;;25.50;14.65;;;1.80;99.90;;;;;;4947796;28;20232;-78
2021/01/25 07:39:16;;;;;;;23.90;13.93;;;1.80;99.90;;;;;;4936679;29;20212;-78
2021/01/25 07:41:42;;;;;;;26.63;16.48;;;1.80;99.90;;;;;;4947166;29;20220;-78
2021/01/25 07:44:09;;;;;;;24.30;15.25;;;1.80;99.90;;;;;;4936568;28;20208;-78
2021/01/25 07:46:35;;;;;;;21.67;14.73;;;1.80;99.90;;;;;;4944902;29;20200;-78
2021/01/25 07:49:01;;;;;;;22.45;15.85;;;1.80;99.90;;;;;;4936852;28;20216;-78
2021/01/25 07:51:29;;;;;;;22.10;14.13;;;1.80;99.90;;;;;;4942012;29;20203;-78
2021/01/25 07:53:56;;;;;;;27.80;16.08;;;1.80;99.90;;;;;;4958565;28;20231;-78
2021/01/25 07:56:24;;;;;;;21.40;14.50;;;1.80;99.90;;;;;;4947916;28;20201;-78
2021/01/25 07:59:01;;;;;;;25.52;15.65;;;1.80;99.90;;;;;;4953576;28;20228;-78
2021/01/25 08:01:28;;;;;;;22.42;14.27;;;1.80;99.90;;;;;;4956712;28;20200;-78
2021/01/25 08:04:05;;;;;;;23.38;15.20;;;1.80;99.90;;;;;;4950594;28;20205;-78
2021/01/25 08:06:37;;;;;;;23.85;14.00;;;1.80;99.90;;;;;;4901086;29;20197;-81
2021/01/25 08:09:37;;;;;;;25.05;15.63;;;1.80;99.90;;;;;;4925869;29;20193;-78
2021/01/25 08:12:03;;;;;;;22.25;15.02;;;1.80;99.90;;;;;;4960716;28;20213;-78
2021/01/25 08:14:39;;;;;;;25.67;15.55;;;1.70;99.90;;;;;;4931250;29;20177;-79
2021/01/25 08:17:08;;;;;;;22.80;13.77;;;1.70;99.90;;;;;;4930176;29;20165;-79
2021/01/25 08:20:03;;;;;;;25.17;14.65;;;1.70;99.90;;;;;;4947379;29;20196;-80
2021/01/25 08:23:14;;;;;;;21.77;13.68;;;1.80;99.90;;;;;;4924451;28;20229;-80
2021/01/25 08:25:41;;;;;;;23.58;13.85;;;1.80;99.90;;;;;;4927417;29;20624;-80
2021/01/25 08:28:26;;;;;;;23.25;14.00;;;1.70;99.90;;;;;;4931552;29;20223;-79
2021/01/25 08:30:52;;;;;;;21.58;14.38;;;1.70;99.90;;;;;;4922692;29;20152;-79
2021/01/25 08:33:33;;;;;;;29.30;15.37;;;1.80;99.90;;;;;;4942850;29;20201;-78
2021/01/25 08:36:00;;;;;;;25.52;14.73;;;1.80;99.90;;;;;;4948954;28;20524;-79
2021/01/25 08:38:31;;;;;;;26.73;16.63;;;1.80;99.90;;;;;;4958085;28;20204;-79
2021/01/25 08:41:01;;;;;;;27.52;14.55;;;1.80;99.90;;;;;;4958471;28;20196;-78
2021/01/25 08:44:08;;;;;;;24.60;15.70;;;1.80;99.90;;;;;;4954664;28;20209;-78
2021/01/25 08:46:49;;;;;;;26.48;15.13;;;1.70;99.90;;;;;;4934343;29;20196;-81
2021/01/25 08:49:23;;;;;;;23.90;15.88;;;1.80;99.90;;;;;;4933962;29;20260;-81
2021/01/25 08:51:59;;;;;;;29.55;15.60;;;1.70;99.90;;;;;;4925453;28;20207;-81
2021/01/25 08:54:33;;;;;;;22.77;14.68;;;1.70;99.90;;;;;;4929826;29;20175;-81
2021/01/25 08:57:40;;;;;;;22.27;14.45;;;1.70;99.90;;;;;;4939181;28;20239;-79
2021/01/25 09:10:34;;;;;;;28.20;13.80;;;1.60;99.90;;;;;;4900292;29;20177;-79
2021/01/25 09:13:00;;;;;;;22.05;15.07;;;1.70;99.90;;;;;;4878193;29;20182;-80
2021/01/25 09:22:07;;;;;;;25.63;16.95;;;1.60;99.90;;;;;;4924620;29;20216;-79
2021/01/25 09:24:59;;;;;;;26.65;16.45;;;1.70;99.90;;;;;;4956635;28;20184;-79
2021/01/25 09:27:25;;;;;;;26.05;15.30;;;1.70;99.90;;;;;;4950098;28;20212;-79
2021/01/25 09:33:16;;;;;;;21.30;13.43;;;1.70;99.90;;;;;;4938000;28;20464;-81
2021/01/25 09:36:19;;;;;;;25.65;14.98;;;1.70;99.90;;;;;;5547374;23;20217;-78
2021/01/25 09:38:45;;;;;;;20.50;12.90;;;1.60;99.90;;;;;;4925981;29;20321;-79
2021/01/25 09:41:35;;;;;;;23.00;15.93;;;1.70;99.90;;;;;;4942648;28;20201;-80
2021/01/25 09:45:00;;;;;;;17.90;13.43;;;1.70;99.90;;;;;;4931206;29;20457;-80
2021/01/25 09:48:00;;;;;;;32.92;17.30;;;1.70;99.90;;;;;;4922641;29;20173;-79
2021/01/25 09:54:31;;;;;;;29.52;14.98;;;1.70;99.90;;;;;;4887308;29;20704;-81
2021/01/25 09:56:57;;;;;;;28.40;17.65;;;1.80;99.90;;;;;;4915128;29;20177;-81
2021/01/25 09:59:47;;;;;;;23.23;15.83;;;1.70;99.90;;;;;;4931152;29;20739;-79
2021/01/25 10:03:02;;;;;;;26.10;16.00;;;1.70;99.90;;;;;;4925563;29;20233;-79
2021/01/25 10:06:03;;;;;;;22.48;14.93;;;1.70;99.90;;;;;;4918203;29;20185;-79
2021/01/25 10:08:39;;;;;;;24.33;15.68;;;1.60;99.90;;;;;;4927772;29;20193;-80
2021/01/25 10:11:45;;;;;;;24.27;16.58;;;1.60;99.90;;;;;;4932663;29;20165;-79
2021/01/25 10:14:36;;;;;;;24.40;15.45;;;1.70;99.90;;;;;;4933037;29;20228;-81
2021/01/25 10:17:16;;;;;;;26.10;15.15;;;1.70;99.90;;;;;;4920658;29;20279;-80
2021/01/25 10:19:42;;;;;;;27.48;15.32;;;1.60;99.90;;;;;;4915418;29;20734;-81
2021/01/25 10:22:23;;;;;;;22.47;14.80;;;1.70;99.90;;;;;;4915018;29;20194;-79
2021/01/25 10:24:48;;;;;;;22.42;15.98;;;1.70;99.90;;;;;;4907986;29;20974;-81
2021/01/25 10:30:58;;;;;;;23.60;16.50;;;1.80;99.90;;;;;;4916112;29;20196;-81
2021/01/25 10:33:38;;;;;;;27.55;17.63;;;1.70;99.90;;;;;;4915354;29;20201;-82
2021/01/25 10:36:04;;;;;;;27.55;17.75;;;1.70;99.90;;;;;;4925970;29;20209;-80
2021/01/25 10:38:40;;;;;;;30.65;18.65;;;1.70;99.90;;;;;;4919087;29;20233;-80
2021/01/25 10:41:06;;;;;;;33.47;19.88;;;1.60;99.90;;;;;;4906495;29;20229;-79
2021/01/25 10:44:25;;;;;;;27.38;16.80;;;1.70;99.90;;;;;;4918311;29;20236;-81
2021/01/25 10:46:51;;;;;;;27.30;18.38;;;1.80;99.90;;;;;;4925852;29;20173;-80
2021/01/25 10:49:32;;;;;;;30.73;18.77;;;1.70;99.90;;;;;;4913024;29;20198;-80
2021/01/25 10:52:36;;;;;;;29.85;18.75;;;1.70;99.90;;;;;;4920754;29;20184;-81
2021/01/25 10:55:01;;;;;;;31.50;20.85;;;1.70;99.90;;;;;;4921453;29;20186;-79
2021/01/25 10:57:27;;;;;;;33.50;20.00;;;1.70;99.90;;;;;;4928728;29;20237;-80
2021/01/25 10:59:53;;;;;;;38.23;20.23;;;1.80;99.90;;;;;;4920109;29;20221;-79
2021/01/25 11:03:02;;;;;;;30.40;19.73;;;1.70;99.90;;;;;;4912312;29;20488;-80
2021/01/25 11:05:31;;;;;;;30.40;19.63;;;1.70;99.90;;;;;;4915911;29;20631;-79
2021/01/25 11:07:57;;;;;;;27.02;18.30;;;1.80;99.90;;;;;;4928010;29;20221;-79
2021/01/25 11:10:25;;;;;;;32.03;20.17;;;1.70;99.90;;;;;;4928540;29;20189;-79
2021/01/25 11:12:52;;;;;;;31.35;21.10;;;1.80;99.90;;;;;;4912055;29;20165;-79
2021/01/25 11:15:36;;;;;;;32.95;21.10;;;1.80;99.90;;;;;;4907554;29;20561;-81
2021/01/25 11:24:46;;;;;;;27.58;17.95;;;1.80;99.90;;;;;;4923534;29;20209;-79
2021/01/25 11:27:12;;;;;;;33.67;20.50;;;1.80;99.90;;;;;;4929175;29;20210;-79
2021/01/25 11:29:37;;;;;;;32.37;19.20;;;1.80;99.90;;;;;;4934086;29;20461;-79
2021/01/25 11:32:05;;;;;;;29.50;20.17;;;1.90;99.90;;;;;;4937364;29;20402;-79
2021/01/25 11:34:31;;;;;;;29.67;21.17;;;1.90;99.90;;;;;;4941082;29;20205;-79
2021/01/25 11:36:57;;;;;;;35.67;21.47;;;1.90;99.90;;;;;;4935514;29;20197;-79
2021/01/25 11:39:35;;;;;;;31.85;20.38;;;1.90;99.90;;;;;;4931129;29;20476;-80
2021/01/25 11:42:19;;;;;;;30.60;21.05;;;1.90;99.90;;;;;;4911711;29;20233;-80
2021/01/25 11:44:53;;;;;;;34.17;22.45;;;1.90;99.90;;;;;;4928413;29;20220;-79
2021/01/25 11:47:57;;;;;;;27.85;18.58;;;2.00;99.90;;;;;;4921892;29;20241;-82
2021/01/25 11:50:32;;;;;;;33.85;22.20;;;2.00;99.90;;;;;;4878442;29;20210;-82
2021/01/25 12:15:02;;;;;;;37.55;22.60;;;2.20;99.90;;;;;;4889671;29;20201;-80
2021/01/25 12:17:28;;;;;;;38.10;21.83;;;2.20;99.90;;;;;;4891414;29;20214;-81
2021/01/25 12:23:56;;;;;;;30.92;20.25;;;2.10;99.90;;;;;;4913360;29;20477;-82
2021/01/25 12:26:37;;;;;;;27.60;18.70;;;2.10;99.90;;;;;;4934195;29;20196;-80
2021/01/25 12:29:03;;;;;;;33.45;20.27;;;2.10;99.90;;;;;;4917494;29;20198;-80
2021/01/25 12:31:40;;;;;;;29.47;18.67;;;2.10;99.90;;;;;;4932410;29;20176;-82
2021/01/25 12:34:38;;;;;;;;;;;;;;;;;;;;;
2021/01/25 12:37:27;;;;;;;28.65;19.27;;;2.20;99.90;;;;;;4901467;29;20221;-82
2021/01/25 12:43:15;;;;;;;29.48;20.40;;;2.20;99.90;;;;;;4920035;29;20209;-80
2021/01/25 12:45:40;;;;;;;33.13;20.93;;;2.20;99.90;;;;;;4920175;29;20217;-80
2021/01/25 12:48:26;;;;;;;31.50;20.83;;;2.10;99.90;;;;;;4918908;29;20225;-80
2021/01/25 12:55:11;;;;;;;26.80;18.70;;;2.10;99.90;;;;;;4878834;29;20275;-80
2021/01/25 12:58:06;;;;;;;29.33;19.50;;;2.20;99.90;;;;;;4879922;29;20195;-80
2021/01/25 13:00:36;;;;;;;28.30;19.80;;;2.20;99.90;;;;;;4864660;29;20211;-80
2021/01/25 13:03:11;;;;;;;31.25;20.20;;;2.20;99.90;;;;;;4912887;29;20212;-82
2021/01/25 13:05:36;;;;;;;27.55;19.75;;;2.20;99.90;;;;;;4920700;29;20233;-80
2021/01/25 13:08:06;;;;;;;28.13;19.20;;;2.20;99.90;;;;;;4920895;29;20182;-80
2021/01/25 13:10:40;;;;;;;30.83;20.90;;;2.20;99.90;;;;;;4921530;29;20181;-80
2021/01/25 13:13:06;;;;;;;28.38;21.13;;;2.30;99.90;;;;;;4920224;29;20236;-80
2021/01/25 14:26:42;;;;;;;29.35;17.95;;;2.60;99.90;;;;;;4921880;29;20234;-80
2021/01/25 14:29:26;;;;;;;26.52;16.73;;;2.60;99.90;;;;;;4884630;29;20231;-80
2021/01/25 14:31:52;;;;;;;27.80;19.45;;;2.60;99.90;;;;;;4940777;28;20235;-80
2021/01/25 14:34:20;;;;;;;24.38;17.35;;;2.60;99.90;;;;;;4941579;29;20198;-80
2021/01/25 14:36:46;;;;;;;24.85;19.05;;;2.60;99.90;;;;;;4941635;29;20261;-80
2021/01/25 14:39:12;;;;;;;24.33;18.93;;;2.70;99.90;;;;;;4941161;29;20209;-80
2021/01/25 14:41:38;;;;;;;23.27;19.03;;;2.60;99.90;;;;;;4940777;29;20181;-80
2021/01/25 14:44:04;;;;;;;22.23;17.90;;;2.70;99.90;;;;;;4939609;28;20212;-80
2021/01/25 14:46:30;;;;;;;22.90;17.20;;;2.70;99.90;;;;;;4941264;29;20410;-80
2021/01/25 14:48:56;;;;;;;21.37;17.77;;;2.70;99.90;;;;;;4955163;29;20220;-80
2021/01/25 14:51:23;;;;;;;21.67;16.97;;;2.60;99.90;;;;;;4941347;29;20189;-80
2021/01/25 14:53:52;;;;;;;24.45;17.95;;;2.50;99.90;;;;;;4939848;29;20473;-80
2021/01/25 14:56:18;;;;;;;24.30;17.52;;;2.70;99.90;;;;;;4940938;29;20178;-80
2021/01/25 14:58:44;;;;;;;22.95;18.42;;;2.70;99.90;;;;;;4940952;29;20224;-80
2021/01/25 15:01:10;;;;;;;19.75;15.45;;;2.70;99.90;;;;;;4940711;29;20201;-80
2021/01/25 15:03:36;;;;;;;21.48;16.52;;;2.70;99.90;;;;;;4941096;29;20264;-80
2021/01/25 15:06:02;;;;;;;20.47;16.73;;;2.70;99.90;;;;;;4939795;29;20185;-80
2021/01/25 15:08:50;;;;;;;21.77;17.37;;;2.70;99.90;;;;;;4938345;29;20233;-80
2021/01/25 15:12:05;;;;;;;21.83;16.40;;;2.80;99.90;;;;;;4939285;29;20562;-80
2021/01/25 15:14:31;;;;;;;22.30;17.55;;;2.90;99.90;;;;;;4936343;29;20221;-80
2021/01/25 15:16:57;;;;;;;23.17;16.77;;;3.00;99.90;;;;;;4936858;29;20217;-80
2021/01/25 15:19:23;;;;;;;24.63;17.73;;;3.10;99.90;;;;;;4935514;29;20276;-80
2021/01/25 15:21:49;;;;;;;20.45;17.23;;;3.20;99.90;;;;;;4933399;28;20211;-79
2021/01/25 15:24:16;;;;;;;24.88;18.63;;;3.20;99.90;;;;;;4937228;29;20212;-80